sensor_id;sensor_type;location;lat;lon;timestamp;pressure;altitude;pressure_sealevel;temperature;humidity
61039;BME280;46919;45.816;3.104;2023-04-19T00:02:16;97895.56;;;5.56;100.00
61039;BME280;46919;45.816;3.104;2023-04-19T00:04:43;97899.00;;;5.50;100.00
61039;BME280;46919;45.816;3.104;2023-04-19T00:07:09;97903.47;;;5.43;100.00
61039;BME280;46919;45.816;3.104;2023-04-19T00:09:35;97909.34;;;5.32;100.00
61039;BME280;46919;45.816;3.104;2023-04-19T00:12:00;97912.97;;;5.24;100.00
61039;BME280;46919;45.816;3.104;2023-04-19T00:14:26;97911.50;;;5.21;100.00
61039;BME280;46919;45.816;3.104;2023-04-19T00:16:52;97911.25;;;5.16;100.00
61039;BME280;46919;45.816;3.104;2023-04-19T00:19:17;97918.00;;;5.12;100.00
61039;BME280;46919;45.816;3.104;2023-04-19T00:21:42;97921.44;;;5.06;100.00
61039;BME280;46919;45.816;3.104;2023-04-19T00:24:08;97916.91;;;5.06;100.00
61039;BME280;46919;45.816;3.104;2023-04-19T00:26:33;97911.19;;;5.10;100.00
61039;BME280;46919;45.816;3.104;2023-04-19T00:28:59;97908.69;;;5.08;100.00
61039;BME280;46919;45.816;3.104;2023-04-19T00:31:24;97911.75;;;5.05;100.00
61039;BME280;46919;45.816;3.104;2023-04-19T00:33:50;97913.22;;;5.07;100.00
61039;BME280;46919;45.816;3.104;2023-04-19T00:36:15;97909.50;;;5.08;100.00
61039;BME280;46919;45.816;3.104;2023-04-19T00:38:41;97913.66;;;5.11;100.00
61039;BME280;46919;45.816;3.104;2023-04-19T00:41:06;97911.94;;;5.03;100.00
61039;BME280;46919;45.816;3.104;2023-04-19T00:43:32;97907.88;;;4.93;100.00
61039;BME280;46919;45.816;3.104;2023-04-19T00:45:57;97906.81;;;4.87;100.00
61039;BME280;46919;45.816;3.104;2023-04-19T00:48:23;97911.06;;;4.81;100.00
61039;BME280;46919;45.816;3.104;2023-04-19T00:50:49;97916.97;;;4.77;100.00
61039;BME280;46919;45.816;3.104;2023-04-19T00:53:15;97910.97;;;4.75;100.00
61039;BME280;46919;45.816;3.104;2023-04-19T00:55:41;97915.03;;;4.70;100.00
61039;BME280;46919;45.816;3.104;2023-04-19T00:58:07;97908.59;;;4.65;100.00
61039;BME280;46919;45.816;3.104;2023-04-19T01:00:34;97905.63;;;4.60;100.00
61039;BME280;46919;45.816;3.104;2023-04-19T01:02:59;97909.53;;;4.57;100.00
61039;BME280;46919;45.816;3.104;2023-04-19T01:05:25;97903.06;;;4.51;100.00
61039;BME280;46919;45.816;3.104;2023-04-19T01:07:51;97897.25;;;4.48;100.00
61039;BME280;46919;45.816;3.104;2023-04-19T01:10:16;97896.25;;;4.49;100.00
61039;BME280;46919;45.816;3.104;2023-04-19T01:12:42;97900.38;;;4.51;100.00
61039;BME280;46919;45.816;3.104;2023-04-19T01:15:08;97900.47;;;4.43;100.00
61039;BME280;46919;45.816;3.104;2023-04-19T01:17:33;97897.16;;;4.41;100.00
61039;BME280;46919;45.816;3.104;2023-04-19T01:20:00;97898.16;;;4.40;100.00
61039;BME280;46919;45.816;3.104;2023-04-19T01:22:26;97898.72;;;4.35;100.00
61039;BME280;46919;45.816;3.104;2023-04-19T01:24:52;97889.88;;;4.35;100.00
61039;BME280;46919;45.816;3.104;2023-04-19T01:27:17;97897.91;;;4.35;100.00
61039;BME280;46919;45.816;3.104;2023-04-19T01:29:44;97896.59;;;4.31;100.00
61039;BME280;46919;45.816;3.104;2023-04-19T01:32:10;97897.81;;;4.28;100.00
61039;BME280;46919;45.816;3.104;2023-04-19T01:34:37;97888.66;;;4.23;100.00
61039;BME280;46919;45.816;3.104;2023-04-19T01:37:02;97890.03;;;4.18;100.00
61039;BME280;46919;45.816;3.104;2023-04-19T01:39:28;97881.84;;;4.20;100.00
61039;BME280;46919;45.816;3.104;2023-04-19T01:41:53;97892.34;;;4.22;100.00
61039;BME280;46919;45.816;3.104;2023-04-19T01:44:19;97888.31;;;4.26;100.00
61039;BME280;46919;45.816;3.104;2023-04-19T01:46:44;97882.31;;;4.24;100.00
61039;BME280;46919;45.816;3.104;2023-04-19T01:49:09;97881.66;;;4.22;100.00
61039;BME280;46919;45.816;3.104;2023-04-19T01:51:39;97886.19;;;4.21;100.00
61039;BME280;46919;45.816;3.104;2023-04-19T01:54:05;97882.19;;;4.17;100.00
61039;BME280;46919;45.816;3.104;2023-04-19T01:56:30;97882.78;;;4.12;100.00
61039;BME280;46919;45.816;3.104;2023-04-19T01:58:57;97882.56;;;4.14;100.00
61039;BME280;46919;45.816;3.104;2023-04-19T02:01:22;97876.13;;;4.08;100.00
61039;BME280;46919;45.816;3.104;2023-04-19T02:03:48;97871.50;;;4.02;100.00
61039;BME280;46919;45.816;3.104;2023-04-19T02:06:13;97872.41;;;3.94;100.00
61039;BME280;46919;45.816;3.104;2023-04-19T02:08:40;97877.94;;;3.93;100.00
61039;BME280;46919;45.816;3.104;2023-04-19T02:11:10;97875.81;;;3.88;100.00
61039;BME280;46919;45.816;3.104;2023-04-19T02:13:36;97869.28;;;3.91;100.00
61039;BME280;46919;45.816;3.104;2023-04-19T02:16:02;97872.59;;;3.93;100.00
61039;BME280;46919;45.816;3.104;2023-04-19T02:18:31;97875.53;;;3.98;100.00
61039;BME280;46919;45.816;3.104;2023-04-19T02:21:00;97868.75;;;3.95;100.00
61039;BME280;46919;45.816;3.104;2023-04-19T02:23:26;97880.34;;;3.88;100.00
61039;BME280;46919;45.816;3.104;2023-04-19T02:25:52;97873.69;;;3.84;100.00
61039;BME280;46919;45.816;3.104;2023-04-19T02:28:17;97875.91;;;3.80;100.00
61039;BME280;46919;45.816;3.104;2023-04-19T02:30:43;97878.84;;;3.85;100.00
61039;BME280;46919;45.816;3.104;2023-04-19T02:33:08;97870.59;;;3.95;100.00
61039;BME280;46919;45.816;3.104;2023-04-19T02:35:34;97874.81;;;4.04;100.00
61039;BME280;46919;45.816;3.104;2023-04-19T02:38:00;97876.75;;;3.95;100.00
61039;BME280;46919;45.816;3.104;2023-04-19T02:40:26;97867.53;;;3.83;100.00
61039;BME280;46919;45.816;3.104;2023-04-19T02:42:52;97868.78;;;3.72;100.00
61039;BME280;46919;45.816;3.104;2023-04-19T02:45:17;97868.06;;;3.63;100.00
61039;BME280;46919;45.816;3.104;2023-04-19T02:47:42;97859.84;;;3.65;100.00
61039;BME280;46919;45.816;3.104;2023-04-19T02:50:10;97859.84;;;3.65;100.00
61039;BME280;46919;45.816;3.104;2023-04-19T02:52:36;97866.47;;;3.69;100.00
61039;BME280;46919;45.816;3.104;2023-04-19T02:55:01;97873.31;;;3.87;100.00
61039;BME280;46919;45.816;3.104;2023-04-19T02:57:26;97865.38;;;3.78;100.00
61039;BME280;46919;45.816;3.104;2023-04-19T02:59:52;97864.84;;;3.68;100.00
61039;BME280;46919;45.816;3.104;2023-04-19T03:02:17;97873.66;;;3.54;100.00
61039;BME280;46919;45.816;3.104;2023-04-19T03:04:43;97874.19;;;3.49;100.00
61039;BME280;46919;45.816;3.104;2023-04-19T03:07:08;97870.66;;;3.49;100.00
61039;BME280;46919;45.816;3.104;2023-04-19T03:09:34;97869.50;;;3.51;100.00
61039;BME280;46919;45.816;3.104;2023-04-19T03:11:59;97870.66;;;3.49;100.00
61039;BME280;46919;45.816;3.104;2023-04-19T03:14:26;97871.38;;;3.42;100.00
61039;BME280;46919;45.816;3.104;2023-04-19T03:16:51;97872.47;;;3.33;100.00
61039;BME280;46919;45.816;3.104;2023-04-19T03:19:16;97872.00;;;3.30;100.00
61039;BME280;46919;45.816;3.104;2023-04-19T03:21:42;97876.22;;;3.24;100.00
61039;BME280;46919;45.816;3.104;2023-04-19T03:24:07;97873.91;;;3.21;100.00
61039;BME280;46919;45.816;3.104;2023-04-19T03:26:33;97885.75;;;3.18;100.00
61039;BME280;46919;45.816;3.104;2023-04-19T03:28:58;97883.28;;;3.17;100.00
61039;BME280;46919;45.816;3.104;2023-04-19T03:31:24;97884.34;;;3.31;100.00
61039;BME280;46919;45.816;3.104;2023-04-19T03:33:49;97874.00;;;3.28;100.00
61039;BME280;46919;45.816;3.104;2023-04-19T03:36:15;97879.22;;;3.44;100.00
61039;BME280;46919;45.816;3.104;2023-04-19T03:38:40;97872.81;;;3.53;100.00
61039;BME280;46919;45.816;3.104;2023-04-19T03:41:20;97866.78;;;3.36;100.00
61039;BME280;46919;45.816;3.104;2023-04-19T03:43:45;97874.84;;;3.28;100.00
61039;BME280;46919;45.816;3.104;2023-04-19T03:46:11;97875.19;;;3.25;100.00
61039;BME280;46919;45.816;3.104;2023-04-19T03:48:36;97883.28;;;3.17;100.00
61039;BME280;46919;45.816;3.104;2023-04-19T03:51:02;97886.28;;;3.14;100.00
61039;BME280;46919;45.816;3.104;2023-04-19T03:53:27;97885.41;;;3.21;100.00
61039;BME280;46919;45.816;3.104;2023-04-19T03:55:53;97874.91;;;3.20;100.00
61039;BME280;46919;45.816;3.104;2023-04-19T03:58:18;97885.16;;;3.31;100.00
61039;BME280;46919;45.816;3.104;2023-04-19T04:00:43;97881.50;;;3.32;100.00
61039;BME280;46919;45.816;3.104;2023-04-19T04:03:09;97877.16;;;3.31;100.00
61039;BME280;46919;45.816;3.104;2023-04-19T04:05:34;97877.81;;;3.33;100.00
61039;BME280;46919;45.816;3.104;2023-04-19T04:08:00;97873.19;;;3.27;100.00
61039;BME280;46919;45.816;3.104;2023-04-19T04:10:25;97874.78;;;3.13;100.00
61039;BME280;46919;45.816;3.104;2023-04-19T04:12:51;97865.34;;;3.02;100.00
61039;BME280;46919;45.816;3.104;2023-04-19T04:15:16;97871.56;;;2.95;100.00
61039;BME280;46919;45.816;3.104;2023-04-19T04:17:41;97865.47;;;2.86;100.00
61039;BME280;46919;45.816;3.104;2023-04-19T04:20:07;97867.09;;;2.87;100.00
61039;BME280;46919;45.816;3.104;2023-04-19T04:22:34;97872.16;;;2.82;100.00
61039;BME280;46919;45.816;3.104;2023-04-19T04:24:59;97872.16;;;2.82;100.00
61039;BME280;46919;45.816;3.104;2023-04-19T04:27:26;97873.53;;;2.78;100.00
61039;BME280;46919;45.816;3.104;2023-04-19T04:29:51;97877.88;;;2.70;100.00
61039;BME280;46919;45.816;3.104;2023-04-19T04:32:17;97875.03;;;2.72;100.00
61039;BME280;46919;45.816;3.104;2023-04-19T04:34:47;97877.53;;;2.74;100.00
61039;BME280;46919;45.816;3.104;2023-04-19T04:37:12;97884.53;;;2.75;100.00
61039;BME280;46919;45.816;3.104;2023-04-19T04:39:38;97884.91;;;2.71;100.00
61039;BME280;46919;45.816;3.104;2023-04-19T04:42:05;97887.91;;;2.68;100.00
61039;BME280;46919;45.816;3.104;2023-04-19T04:44:34;97885.28;;;2.60;100.00
61039;BME280;46919;45.816;3.104;2023-04-19T04:46:59;97901.94;;;2.62;100.00
61039;BME280;46919;45.816;3.104;2023-04-19T04:49:25;97900.09;;;2.63;100.00
61039;BME280;46919;45.816;3.104;2023-04-19T04:51:50;97898.97;;;2.57;100.00
61039;BME280;46919;45.816;3.104;2023-04-19T04:54:15;97897.13;;;2.58;100.00
61039;BME280;46919;45.816;3.104;2023-04-19T04:56:41;97896.81;;;2.52;100.00
61039;BME280;46919;45.816;3.104;2023-04-19T04:59:06;97895.50;;;2.48;100.00
61039;BME280;46919;45.816;3.104;2023-04-19T05:01:32;97894.66;;;2.48;100.00
61039;BME280;46919;45.816;3.104;2023-04-19T05:03:58;97895.78;;;2.53;100.00
61039;BME280;46919;45.816;3.104;2023-04-19T05:06:23;97891.84;;;2.49;100.00
61039;BME280;46919;45.816;3.104;2023-04-19T05:08:49;97893.00;;;2.47;100.00
61039;BME280;46919;45.816;3.104;2023-04-19T05:11:14;97896.66;;;2.46;100.00
61039;BME280;46919;45.816;3.104;2023-04-19T05:13:40;97900.00;;;2.48;100.00
61039;BME280;46919;45.816;3.104;2023-04-19T05:16:05;97896.31;;;2.49;100.00
61039;BME280;46919;45.816;3.104;2023-04-19T05:18:31;97902.50;;;2.49;100.00
61039;BME280;46919;45.816;3.104;2023-04-19T05:20:56;97900.81;;;2.48;100.00
61039;BME280;46919;45.816;3.104;2023-04-19T05:23:22;97896.16;;;2.50;100.00
61039;BME280;46919;45.816;3.104;2023-04-19T05:25:47;97900.28;;;2.61;100.00
61039;BME280;46919;45.816;3.104;2023-04-19T05:28:13;97897.38;;;2.79;100.00
61039;BME280;46919;45.816;3.104;2023-04-19T05:30:38;97892.44;;;2.91;100.00
61039;BME280;46919;45.816;3.104;2023-04-19T05:33:04;97891.41;;;3.00;100.00
61039;BME280;46919;45.816;3.104;2023-04-19T05:35:30;97899.28;;;2.94;100.00
61039;BME280;46919;45.816;3.104;2023-04-19T05:37:55;97897.50;;;2.86;100.00
61039;BME280;46919;45.816;3.104;2023-04-19T05:40:21;97897.38;;;2.79;100.00
61039;BME280;46919;45.816;3.104;2023-04-19T05:42:48;97900.84;;;2.80;100.00
61039;BME280;46919;45.816;3.104;2023-04-19T05:45:14;97895.34;;;2.81;100.00
61039;BME280;46919;45.816;3.104;2023-04-19T05:47:40;97885.78;;;2.87;100.00
61039;BME280;46919;45.816;3.104;2023-04-19T05:50:06;97883.75;;;2.97;100.00
61039;BME280;46919;45.816;3.104;2023-04-19T05:52:31;97892.16;;;3.09;100.00
61039;BME280;46919;45.816;3.104;2023-04-19T05:54:57;97892.31;;;3.16;100.00
61039;BME280;46919;45.816;3.104;2023-04-19T05:57:23;97893.94;;;3.17;100.00
61039;BME280;46919;45.816;3.104;2023-04-19T05:59:48;97895.28;;;3.21;100.00
61039;BME280;46919;45.816;3.104;2023-04-19T06:02:14;97890.50;;;3.31;100.00
61039;BME280;46919;45.816;3.104;2023-04-19T06:04:39;97889.09;;;3.43;100.00
61039;BME280;46919;45.816;3.104;2023-04-19T06:07:06;97893.53;;;3.51;100.00
61039;BME280;46919;45.816;3.104;2023-04-19T06:09:31;97890.16;;;3.57;100.00
61039;BME280;46919;45.816;3.104;2023-04-19T06:11:57;97890.84;;;3.74;100.00
61039;BME280;46919;45.816;3.104;2023-04-19T06:14:22;97890.75;;;3.83;100.00
61039;BME280;46919;45.816;3.104;2023-04-19T06:16:48;97893.16;;;3.92;100.00
61039;BME280;46919;45.816;3.104;2023-04-19T06:19:14;97894.38;;;4.05;100.00
61039;BME280;46919;45.816;3.104;2023-04-19T06:21:40;97892.44;;;4.13;100.00
61039;BME280;46919;45.816;3.104;2023-04-19T06:24:06;97901.09;;;4.15;100.00
61039;BME280;46919;45.816;3.104;2023-04-19T06:26:31;97893.56;;;4.19;100.00
61039;BME280;46919;45.816;3.104;2023-04-19T06:28:57;97900.75;;;4.33;100.00
61039;BME280;46919;45.816;3.104;2023-04-19T06:31:22;97905.09;;;4.49;100.00
61039;BME280;46919;45.816;3.104;2023-04-19T06:33:48;97894.19;;;4.66;100.00
61039;BME280;46919;45.816;3.104;2023-04-19T06:36:13;97891.69;;;4.79;100.00
61039;BME280;46919;45.816;3.104;2023-04-19T06:38:38;97888.31;;;4.92;100.00
61039;BME280;46919;45.816;3.104;2023-04-19T06:41:06;97891.56;;;5.09;100.00
61039;BME280;46919;45.816;3.104;2023-04-19T06:43:31;97894.41;;;5.22;100.00
61039;BME280;46919;45.816;3.104;2023-04-19T06:46:00;97890.44;;;5.18;100.00
61039;BME280;46919;45.816;3.104;2023-04-19T06:48:26;97887.13;;;5.16;100.00
61039;BME280;46919;45.816;3.104;2023-04-19T06:50:53;97889.44;;;5.19;100.00
61039;BME280;46919;45.816;3.104;2023-04-19T06:53:18;97891.53;;;5.24;100.00
61039;BME280;46919;45.816;3.104;2023-04-19T06:55:44;97894.53;;;5.36;100.00
61039;BME280;46919;45.816;3.104;2023-04-19T06:58:10;97878.34;;;5.44;100.00
61039;BME280;46919;45.816;3.104;2023-04-19T07:00:36;97876.53;;;5.51;100.00
61039;BME280;46919;45.816;3.104;2023-04-19T07:03:02;97883.69;;;5.66;100.00
61039;BME280;46919;45.816;3.104;2023-04-19T07:05:29;97880.06;;;5.80;100.00
61039;BME280;46919;45.816;3.104;2023-04-19T07:07:55;97876.41;;;5.88;100.00
61039;BME280;46919;45.816;3.104;2023-04-19T07:10:20;97885.56;;;5.93;100.00
61039;BME280;46919;45.816;3.104;2023-04-19T07:12:46;97890.56;;;5.96;100.00
61039;BME280;46919;45.816;3.104;2023-04-19T07:15:11;97893.47;;;6.02;100.00
61039;BME280;46919;45.816;3.104;2023-04-19T07:17:37;97887.13;;;6.09;100.00
61039;BME280;46919;45.816;3.104;2023-04-19T07:20:03;97892.78;;;6.21;100.00
61039;BME280;46919;45.816;3.104;2023-04-19T07:22:30;97889.75;;;6.31;100.00
61039;BME280;46919;45.816;3.104;2023-04-19T07:24:56;97887.16;;;6.44;100.00
61039;BME280;46919;45.816;3.104;2023-04-19T07:27:22;97897.72;;;6.52;100.00
61039;BME280;46919;45.816;3.104;2023-04-19T07:29:47;97892.97;;;6.55;100.00
61039;BME280;46919;45.816;3.104;2023-04-19T07:32:12;97887.81;;;6.60;100.00
61039;BME280;46919;45.816;3.104;2023-04-19T07:34:39;97892.19;;;6.67;100.00
61039;BME280;46919;45.816;3.104;2023-04-19T07:37:05;97898.44;;;6.75;100.00
61039;BME280;46919;45.816;3.104;2023-04-19T07:39:31;97903.03;;;6.81;100.00
61039;BME280;46919;45.816;3.104;2023-04-19T07:41:57;97894.19;;;7.00;100.00
61039;BME280;46919;45.816;3.104;2023-04-19T07:44:22;97895.28;;;7.13;100.00
61039;BME280;46919;45.816;3.104;2023-04-19T07:46:47;97895.28;;;7.19;100.00
61039;BME280;46919;45.816;3.104;2023-04-19T07:49:14;97893.66;;;7.25;100.00
61039;BME280;46919;45.816;3.104;2023-04-19T07:51:40;97899.66;;;7.40;100.00
61039;BME280;46919;45.816;3.104;2023-04-19T07:54:05;97892.25;;;7.42;100.00
61039;BME280;46919;45.816;3.104;2023-04-19T07:56:31;97899.69;;;7.54;100.00
61039;BME280;46919;45.816;3.104;2023-04-19T07:58:56;97892.03;;;7.57;100.00
61039;BME280;46919;45.816;3.104;2023-04-19T08:01:22;97890.81;;;7.60;100.00
61039;BME280;46919;45.816;3.104;2023-04-19T08:03:47;97881.06;;;7.72;100.00
61039;BME280;46919;45.816;3.104;2023-04-19T08:06:13;97882.53;;;7.88;100.00
61039;BME280;46919;45.816;3.104;2023-04-19T08:08:38;97894.09;;;8.02;100.00
61039;BME280;46919;45.816;3.104;2023-04-19T08:11:04;97890.78;;;8.13;100.00
61039;BME280;46919;45.816;3.104;2023-04-19T08:13:30;97884.97;;;8.16;100.00
61039;BME280;46919;45.816;3.104;2023-04-19T08:15:56;97890.16;;;8.18;100.00
61039;BME280;46919;45.816;3.104;2023-04-19T08:18:21;97890.78;;;8.27;100.00
61039;BME280;46919;45.816;3.104;2023-04-19T08:20:47;97882.88;;;8.39;100.00
61039;BME280;46919;45.816;3.104;2023-04-19T08:23:13;97888.88;;;8.54;100.00
61039;BME280;46919;45.816;3.104;2023-04-19T08:25:39;97885.72;;;8.64;100.00
61039;BME280;46919;45.816;3.104;2023-04-19T08:28:04;97883.00;;;8.77;100.00
61039;BME280;46919;45.816;3.104;2023-04-19T08:30:31;97888.72;;;9.01;100.00
61039;BME280;46919;45.816;3.104;2023-04-19T08:32:56;97884.69;;;9.10;100.00
61039;BME280;46919;45.816;3.104;2023-04-19T08:35:22;97883.78;;;9.30;100.00
61039;BME280;46919;45.816;3.104;2023-04-19T08:37:47;97884.56;;;9.37;100.00
61039;BME280;46919;45.816;3.104;2023-04-19T08:40:14;97879.97;;;9.44;100.00
61039;BME280;46919;45.816;3.104;2023-04-19T08:42:41;97872.81;;;9.56;100.00
61039;BME280;46919;45.816;3.104;2023-04-19T08:45:07;97874.03;;;9.60;100.00
61039;BME280;46919;45.816;3.104;2023-04-19T08:47:35;97872.13;;;9.68;100.00
61039;BME280;46919;45.816;3.104;2023-04-19T08:50:03;97877.72;;;9.66;100.00
61039;BME280;46919;45.816;3.104;2023-04-19T08:52:32;97877.16;;;9.83;100.00
61039;BME280;46919;45.816;3.104;2023-04-19T08:55:03;97879.53;;;9.97;100.00
61039;BME280;46919;45.816;3.104;2023-04-19T08:57:32;97882.19;;;10.04;100.00
61039;BME280;46919;45.816;3.104;2023-04-19T09:00:01;97876.06;;;10.15;100.00
61039;BME280;46919;45.816;3.104;2023-04-19T09:02:49;97879.94;;;10.20;100.00
61039;BME280;46919;45.816;3.104;2023-04-19T09:05:17;97879.06;;;10.32;100.00
61039;BME280;46919;45.816;3.104;2023-04-19T09:07:43;97876.88;;;10.41;100.00
61039;BME280;46919;45.816;3.104;2023-04-19T09:10:14;97878.31;;;10.44;100.00
61039;BME280;46919;45.816;3.104;2023-04-19T09:12:40;97877.56;;;10.55;100.00
61039;BME280;46919;45.816;3.104;2023-04-19T09:15:07;97870.03;;;10.76;100.00
61039;BME280;46919;45.816;3.104;2023-04-19T09:17:34;97868.06;;;10.83;100.00
61039;BME280;46919;45.816;3.104;2023-04-19T09:20:00;97872.00;;;10.87;100.00
61039;BME280;46919;45.816;3.104;2023-04-19T09:22:25;97864.47;;;10.89;100.00
61039;BME280;46919;45.816;3.104;2023-04-19T09:24:51;97865.38;;;10.83;100.00
61039;BME280;46919;45.816;3.104;2023-04-19T09:27:31;97861.44;;;10.97;99.68
61039;BME280;46919;45.816;3.104;2023-04-19T09:29:58;97850.25;;;11.24;98.42
61039;BME280;46919;45.816;3.104;2023-04-19T09:32:25;97850.78;;;11.45;97.63
61039;BME280;46919;45.816;3.104;2023-04-19T09:34:56;97852.47;;;11.46;97.57
61039;BME280;46919;45.816;3.104;2023-04-19T09:37:23;97850.78;;;11.45;95.75
61039;BME280;46919;45.816;3.104;2023-04-19T09:39:48;97839.63;;;11.53;94.83
61039;BME280;46919;45.816;3.104;2023-04-19T09:42:14;97838.84;;;11.64;93.85
61039;BME280;46919;45.816;3.104;2023-04-19T09:44:41;97835.09;;;11.77;92.47
61039;BME280;46919;45.816;3.104;2023-04-19T09:47:22;97840.28;;;11.90;92.36
61039;BME280;46919;45.816;3.104;2023-04-19T09:50:03;97828.06;;;12.11;91.63
61039;BME280;46919;45.816;3.104;2023-04-19T09:52:29;97827.72;;;12.20;90.47
61039;BME280;46919;45.816;3.104;2023-04-19T09:54:56;97819.81;;;12.30;89.80
61039;BME280;46919;45.816;3.104;2023-04-19T09:57:22;97823.91;;;12.44;89.62
61039;BME280;46919;45.816;3.104;2023-04-19T09:59:48;97812.91;;;12.63;88.74
61039;BME280;46919;45.816;3.104;2023-04-19T10:02:14;97816.53;;;12.68;88.54
61039;BME280;46919;45.816;3.104;2023-04-19T10:04:41;97810.63;;;12.83;87.78
61039;BME280;46919;45.816;3.104;2023-04-19T10:07:07;97805.63;;;12.92;85.84
61039;BME280;46919;45.816;3.104;2023-04-19T10:09:34;97808.06;;;13.05;84.27
61039;BME280;46919;45.816;3.104;2023-04-19T10:12:00;97803.53;;;13.11;84.09
61039;BME280;46919;45.816;3.104;2023-04-19T10:14:28;97797.94;;;13.18;83.61
61039;BME280;46919;45.816;3.104;2023-04-19T10:16:57;97802.75;;;13.28;82.20
61039;BME280;46919;45.816;3.104;2023-04-19T10:19:24;97796.53;;;13.44;81.67
61039;BME280;46919;45.816;3.104;2023-04-19T10:21:51;97784.59;;;13.62;81.81
61039;BME280;46919;45.816;3.104;2023-04-19T10:24:17;97789.13;;;13.73;81.13
61039;BME280;46919;45.816;3.104;2023-04-19T10:30:02;97770.28;;;14.01;76.15
61039;BME280;46919;45.816;3.104;2023-04-19T10:32:43;97769.16;;;14.19;76.92
61039;BME280;46919;45.816;3.104;2023-04-19T10:35:16;97764.22;;;14.38;75.53
61039;BME280;46919;45.816;3.104;2023-04-19T10:38:01;97765.97;;;14.66;74.15
61039;BME280;46919;45.816;3.104;2023-04-19T10:43:18;97756.59;;;14.79;74.69
61039;BME280;46919;45.816;3.104;2023-04-19T10:45:44;97760.88;;;14.75;71.78
61039;BME280;46919;45.816;3.104;2023-04-19T10:51:01;97749.69;;;14.71;68.97
61039;BME280;46919;45.816;3.104;2023-04-19T10:53:46;97748.25;;;14.63;69.74
61039;BME280;46919;45.816;3.104;2023-04-19T10:56:17;97747.88;;;14.77;68.11
61039;BME280;46919;45.816;3.104;2023-04-19T11:01:46;97747.34;;;15.34;68.05
61039;BME280;46919;45.816;3.104;2023-04-19T11:04:16;97748.28;;;15.50;67.69
61039;BME280;46919;45.816;3.104;2023-04-19T11:09:24;97731.31;;;15.75;65.43
61039;BME280;46919;45.816;3.104;2023-04-19T11:11:50;97734.03;;;15.75;65.27
61039;BME280;46919;45.816;3.104;2023-04-19T11:14:16;97723.84;;;15.61;63.79
61039;BME280;46919;45.816;3.104;2023-04-19T11:16:43;97722.78;;;15.67;64.19
61039;BME280;46919;45.816;3.104;2023-04-19T11:19:08;97719.16;;;15.88;64.71
61039;BME280;46919;45.816;3.104;2023-04-19T11:21:39;97723.06;;;16.08;65.96
61039;BME280;46919;45.816;3.104;2023-04-19T11:24:08;97718.56;;;16.29;66.67
61039;BME280;46919;45.816;3.104;2023-04-19T11:26:34;97704.97;;;16.44;65.92
61039;BME280;46919;45.816;3.104;2023-04-19T11:28:59;97702.53;;;16.53;64.76
61039;BME280;46919;45.816;3.104;2023-04-19T11:31:25;97693.03;;;16.71;63.05
61039;BME280;46919;45.816;3.104;2023-04-19T11:33:51;97691.75;;;17.05;64.73
61039;BME280;46919;45.816;3.104;2023-04-19T11:36:17;97681.13;;;17.18;62.63
61039;BME280;46919;45.816;3.104;2023-04-19T11:38:47;97673.19;;;17.22;61.35
61039;BME280;46919;45.816;3.104;2023-04-19T11:41:13;97673.72;;;17.39;62.24
61039;BME280;46919;45.816;3.104;2023-04-19T11:43:38;97675.59;;;17.65;62.11
61039;BME280;46919;45.816;3.104;2023-04-19T11:46:07;97670.72;;;17.56;62.10
61039;BME280;46919;45.816;3.104;2023-04-19T11:48:32;97673.44;;;17.72;61.65
61039;BME280;46919;45.816;3.104;2023-04-19T11:50:59;97670.66;;;17.92;61.09
61039;BME280;46919;45.816;3.104;2023-04-19T11:53:26;97662.19;;;17.89;60.56
61039;BME280;46919;45.816;3.104;2023-04-19T11:55:53;97656.94;;;18.13;58.94
61039;BME280;46919;45.816;3.104;2023-04-19T12:00:50;97655.28;;;18.12;58.72
61039;BME280;46919;45.816;3.104;2023-04-19T12:03:16;97656.16;;;17.92;58.09
61039;BME280;46919;45.816;3.104;2023-04-19T12:05:58;97645.47;;;18.01;57.88
61039;BME280;46919;45.816;3.104;2023-04-19T12:08:34;97637.59;;;18.49;55.42
61039;BME280;46919;45.816;3.104;2023-04-19T12:11:00;97629.81;;;18.72;56.88
61039;BME280;46919;45.816;3.104;2023-04-19T12:13:28;97630.94;;;18.65;55.88
61039;BME280;46919;45.816;3.104;2023-04-19T12:15:54;97622.00;;;18.94;56.36
61039;BME280;46919;45.816;3.104;2023-04-19T12:18:21;97628.28;;;19.29;56.65
61039;BME280;46919;45.816;3.104;2023-04-19T12:20:48;97626.94;;;19.56;55.61
61039;BME280;46919;45.816;3.104;2023-04-19T12:23:14;97618.47;;;19.52;55.11
61039;BME280;46919;45.816;3.104;2023-04-19T12:25:42;97616.91;;;19.41;53.39
61039;BME280;46919;45.816;3.104;2023-04-19T12:28:08;97617.47;;;19.43;54.20
61039;BME280;46919;45.816;3.104;2023-04-19T12:30:37;97613.63;;;19.68;53.54
61039;BME280;46919;45.816;3.104;2023-04-19T12:33:03;97607.66;;;19.61;50.80
61039;BME280;46919;45.816;3.104;2023-04-19T12:35:30;97611.13;;;19.72;51.08
61039;BME280;46919;45.816;3.104;2023-04-19T12:37:57;97612.03;;;19.91;50.45
61039;BME280;46919;45.816;3.104;2023-04-19T12:40:24;97614.94;;;20.00;49.97
61039;BME280;46919;45.816;3.104;2023-04-19T12:42:50;97612.44;;;19.80;48.59
61039;BME280;46919;45.816;3.104;2023-04-19T12:45:17;97601.88;;;19.92;48.81
61039;BME280;46919;45.816;3.104;2023-04-19T12:47:43;97598.22;;;20.21;48.46
61039;BME280;46919;45.816;3.104;2023-04-19T12:50:09;97595.91;;;20.28;48.08
61039;BME280;46919;45.816;3.104;2023-04-19T12:52:34;97591.88;;;20.44;47.33
61039;BME280;46919;45.816;3.104;2023-04-19T12:55:00;97589.63;;;20.47;47.48
61039;BME280;46919;45.816;3.104;2023-04-19T12:57:26;97586.16;;;20.79;47.02
61039;BME280;46919;45.816;3.104;2023-04-19T12:59:51;97587.13;;;20.69;45.91
61039;BME280;46919;45.816;3.104;2023-04-19T13:02:17;97583.16;;;20.94;45.74
61039;BME280;46919;45.816;3.104;2023-04-19T13:04:42;97572.00;;;21.05;45.09
61039;BME280;46919;45.816;3.104;2023-04-19T13:07:07;97563.72;;;21.24;44.44
61039;BME280;46919;45.816;3.104;2023-04-19T13:09:33;97572.31;;;21.50;44.12
61039;BME280;46919;45.816;3.104;2023-04-19T13:11:58;97569.47;;;21.08;43.78
61039;BME280;46919;45.816;3.104;2023-04-19T13:14:25;97569.16;;;20.58;44.38